Time;durP1;ratioP1;P1;durP2;ratioP2;P2;SDS_P1;SDS_P2;PMS_P1;PMS_P2;Temp;Humidity;BMP_temperature;BMP_pressure;BME280_temperature;BME280_humidity;BME280_pressure;Samples;Min_cycle;Max_cycle;Signal;HPM_P1;HPM_P2
2022/05/20 00:00:41;;;;;;;34.05;30.42;;;;;;;14.12;100.00;102112.81;6371645;23;20101;-69
2022/05/20 00:03:13;;;;;;;32.35;29.35;;;;;;;14.09;100.00;102109.59;6372500;23;20014;-69
2022/05/20 00:05:44;;;;;;;33.53;30.10;;;;;;;14.00;100.00;102113.81;6372511;23;20018;-69
2022/05/20 00:08:16;;;;;;;32.35;29.25;;;;;;;13.97;100.00;102119.31;6372599;23;20013;-69
2022/05/20 00:10:53;;;;;;;31.80;28.73;;;;;;;13.93;100.00;102112.59;6372790;23;20219;-69
2022/05/20 00:13:27;;;;;;;29.75;26.88;;;;;;;13.93;100.00;102109.13;6373583;23;20053;-69
2022/05/20 00:15:59;;;;;;;31.25;28.27;;;;;;;13.84;100.00;102103.63;6346740;23;20010;-69
2022/05/20 00:18:30;;;;;;;31.70;28.48;;;;;;;13.84;100.00;102108.91;6372098;23;20029;-69
2022/05/20 00:21:01;;;;;;;31.58;28.38;;;;;;;13.84;100.00;102111.53;6373418;23;20036;-69
2022/05/20 00:23:33;;;;;;;33.38;30.00;;;;;;;13.83;100.00;102109.03;6373547;23;20057;-69
2022/05/20 00:26:04;;;;;;;32.83;29.48;;;;;;;13.79;100.00;102110.25;6373805;23;20033;-69
2022/05/20 00:28:35;;;;;;;34.42;30.95;;;;;;;13.80;100.00;102104.00;6373667;23;20009;-69
2022/05/20 00:31:10;;;;;;;31.73;28.77;;;;;;;13.73;100.00;102097.53;6374242;23;20013;-69
2022/05/20 00:33:41;;;;;;;29.50;26.58;;;;;;;13.62;100.00;102099.22;6375132;23;20326;-69
2022/05/20 00:36:12;;;;;;;31.42;28.45;;;;;;;13.67;100.00;102096.22;6373298;23;20013;-69
2022/05/20 00:38:44;;;;;;;29.75;26.95;;;;;;;13.60;100.00;102090.59;6374401;23;20081;-69
2022/05/20 00:41:16;;;;;;;30.20;27.05;;;;;;;13.58;100.00;102099.56;6375106;23;20010;-69
2022/05/20 00:43:52;;;;;;;30.02;26.92;;;;;;;13.54;100.00;102096.34;6374130;23;20005;-69
2022/05/20 00:46:25;;;;;;;29.92;26.95;;;;;;;13.47;100.00;102096.94;6374447;23;20006;-69
2022/05/20 00:49:01;;;;;;;30.42;27.45;;;;;;;13.54;100.00;102095.50;6374468;23;20338;-69
2022/05/20 00:51:38;;;;;;;31.25;28.13;;;;;;;13.42;100.00;102094.66;6374768;23;20500;-69
2022/05/20 00:54:15;;;;;;;30.33;27.23;;;;;;;13.45;100.00;102096.19;6373702;23;20066;-69
2022/05/20 00:56:55;;;;;;;29.67;26.73;;;;;;;13.43;100.00;102095.50;6374099;23;20044;-69
2022/05/20 00:59:29;;;;;;;30.15;27.13;;;;;;;13.39;100.00;102092.25;6374270;23;20311;-69
2022/05/20 01:02:08;;;;;;;28.55;25.75;;;;;;;13.39;100.00;102090.47;6374413;23;20010;-69
2022/05/20 01:04:40;;;;;;;29.50;26.52;;;;;;;13.32;100.00;102098.94;6373643;23;20049;-69
2022/05/20 01:07:13;;;;;;;29.92;26.92;;;;;;;13.33;100.00;102096.22;6374197;23;20024;-69
2022/05/20 01:09:45;;;;;;;30.15;27.15;;;;;;;13.32;100.00;102093.69;6349158;23;20448;-69
2022/05/20 01:12:16;;;;;;;31.00;27.95;;;;;;;13.27;100.00;102088.78;6373988;23;20002;-69
2022/05/20 01:14:49;;;;;;;32.28;28.70;;;;;;;13.28;100.00;102097.50;6372718;23;20029;-69
2022/05/20 01:17:21;;;;;;;31.85;28.52;;;;;;;13.27;100.00;102099.31;6374848;23;20006;-69
2022/05/20 01:19:54;;;;;;;30.02;27.17;;;;;;;13.30;100.00;102101.69;6373261;23;20009;-69
2022/05/20 01:22:39;;;;;;;31.17;27.85;;;;;;;13.36;100.00;102095.94;6374551;23;20008;-69
2022/05/20 01:25:11;;;;;;;29.85;26.98;;;;;;;13.34;100.00;102097.03;6373039;23;20009;-69
2022/05/20 01:27:43;;;;;;;29.80;26.92;;;;;;;13.26;100.00;102079.22;6374362;23;20345;-69
2022/05/20 01:30:18;;;;;;;32.15;28.65;;;;;;;13.32;100.00;102093.69;6374425;23;20473;-69
2022/05/20 01:32:50;;;;;;;29.88;26.85;;;;;;;13.22;100.00;102080.38;6374599;23;20081;-69
2022/05/20 01:35:37;;;;;;;30.33;26.92;;;;;;;13.31;100.00;102081.47;6373189;23;20108;-69
2022/05/20 01:38:11;;;;;;;30.20;27.20;;;;;;;13.20;100.00;102077.00;6374090;23;20492;-69
2022/05/20 01:40:56;;;;;;;32.25;28.95;;;;;;;13.39;100.00;102073.81;6347704;23;20016;-69
2022/05/20 01:43:53;;;;;;;32.08;28.73;;;;;;;13.32;100.00;102062.94;6348237;23;20485;-69
2022/05/20 01:46:41;;;;;;;32.67;29.42;;;;;;;13.32;100.00;102070.81;6346576;23;20017;-69
2022/05/20 01:49:16;;;;;;;33.65;29.95;;;;;;;13.29;100.00;102062.31;6374513;23;20449;-69
2022/05/20 01:52:08;;;;;;;35.15;31.48;;;;;;;13.41;100.00;102057.91;6374629;23;20426;-69
2022/05/20 01:55:03;;;;;;;32.72;29.38;;;;;;;13.42;100.00;102056.97;6372695;23;20014;-69
2022/05/20 01:57:47;;;;;;;34.22;30.52;;;;;;;13.29;100.00;102064.97;6374201;23;20056;-69
2022/05/20 02:00:21;;;;;;;33.00;29.60;;;;;;;13.14;100.00;102056.41;6372825;23;20016;-69
2022/05/20 02:03:05;;;;;;;34.28;30.02;;;;;;;13.26;100.00;102058.16;6372196;23;20014;-69
2022/05/20 02:05:54;;;;;;;33.90;30.35;;;;;;;13.33;100.00;102058.50;6372014;23;20021;-69
2022/05/20 02:08:57;;;;;;;32.70;29.30;;;;;;;13.30;100.00;102054.31;6374389;23;20002;-69
2022/05/20 02:11:50;;;;;;;32.50;29.35;;;;;;;13.16;100.00;102057.13;6336605;23;20021;-69
2022/05/20 02:14:43;;;;;;;30.90;27.85;;;;;;;13.21;100.00;102054.16;6373571;23;20664;-69
2022/05/20 02:17:16;;;;;;;30.75;27.65;;;;;;;13.01;100.00;102046.00;6373862;23;20016;-69
2022/05/20 02:19:53;;;;;;;30.55;27.25;;;;;;;12.97;100.00;102054.25;6373750;23;20041;-69
2022/05/20 02:22:29;;;;;;;30.08;27.23;;;;;;;12.94;100.00;102062.34;6373781;23;20014;-69
2022/05/20 02:25:03;;;;;;;30.70;27.70;;;;;;;12.90;100.00;102053.84;6373558;23;20017;-69
2022/05/20 02:27:40;;;;;;;33.33;27.80;;;;;;;12.94;100.00;102052.66;6347963;23;20313;-69
2022/05/20 02:30:15;;;;;;;29.52;26.80;;;;;;;12.97;100.00;102051.59;6373647;23;20081;-69
2022/05/20 02:32:58;;;;;;;29.38;26.42;;;;;;;12.95;100.00;102048.25;6373834;23;20346;-69
2022/05/20 02:35:29;;;;;;;28.83;25.95;;;;;;;12.82;100.00;102046.53;6371940;23;20438;-69
2022/05/20 02:38:07;;;;;;;27.63;24.92;;;;;;;12.82;100.00;102051.81;6373470;23;20013;-69
2022/05/20 02:40:40;;;;;;;27.85;24.98;;;;;;;12.76;100.00;102061.94;6374002;23;20017;-69
2022/05/20 02:43:11;;;;;;;26.52;24.02;;;;;;;12.70;100.00;102057.97;6373991;23;20006;-69
2022/05/20 02:45:46;;;;;;;25.42;22.80;;;;;;;12.69;100.00;102056.31;6372535;23;20033;-69
2022/05/20 02:48:19;;;;;;;26.23;23.63;;;;;;;12.62;100.00;102047.19;6374112;23;20129;-69
2022/05/20 02:50:51;;;;;;;27.30;24.52;;;;;;;12.58;100.00;102046.59;6347346;23;20516;-69
2022/05/20 02:53:22;;;;;;;27.10;24.38;;;;;;;12.61;100.00;102048.13;6373637;23;20052;-69
2022/05/20 02:55:54;;;;;;;27.20;24.25;;;;;;;12.61;100.00;102049.00;6373587;23;20287;-69
2022/05/20 03:04:12;;;;;;;25.63;21.58;;;;;;;12.52;100.00;102039.16;6373159;23;20009;-69
2022/05/20 03:06:49;;;;;;;23.88;21.48;;;;;;;12.58;100.00;102040.50;6347315;23;20025;-69
2022/05/20 03:09:23;;;;;;;21.83;19.63;;;;;;;12.43;100.00;102029.31;6373170;23;20002;-69
2022/05/20 03:11:54;;;;;;;22.05;19.92;;;;;;;12.37;100.00;102033.22;6373085;23;20478;-69
2022/05/20 03:14:26;;;;;;;22.95;20.63;;;;;;;12.43;100.00;102021.44;6373787;23;20040;-69
2022/05/20 03:17:01;;;;;;;22.45;20.23;;;;;;;12.50;100.00;102025.28;6373415;23;20069;-69
2022/05/20 03:19:33;;;;;;;24.05;21.25;;;;;;;12.41;100.00;102039.09;6373726;23;20002;-69
2022/05/20 03:22:06;;;;;;;23.95;21.67;;;;;;;12.46;100.00;102041.38;6373614;23;20009;-69
2022/05/20 03:24:37;;;;;;;21.70;19.55;;;;;;;12.46;100.00;102033.50;6373198;23;20002;-69
2022/05/20 03:27:09;;;;;;;22.13;20.05;;;;;;;12.45;100.00;102034.44;6373248;23;20002;-69
2022/05/20 03:29:40;;;;;;;24.50;21.90;;;;;;;12.41;100.00;102031.22;6373208;23;20341;-69
2022/05/20 03:32:12;;;;;;;25.30;22.77;;;;;;;12.43;100.00;102021.44;6373528;23;20396;-69
2022/05/20 03:34:43;;;;;;;30.60;27.48;;;;;;;12.45;100.00;102023.94;6373491;23;20060;-69
2022/05/20 03:37:15;;;;;;;31.00;27.75;;;;;;;12.47;100.00;102028.16;6373342;23;20462;-69
2022/05/20 03:39:46;;;;;;;31.83;28.42;;;;;;;12.52;100.00;102033.06;6372896;23;20350;-69
2022/05/20 03:42:18;;;;;;;29.83;26.80;;;;;;;12.54;100.00;102032.00;6374079;23;20006;-69
2022/05/20 03:44:50;;;;;;;31.33;28.10;;;;;;;12.54;100.00;102032.00;6370964;23;20469;-69
2022/05/20 03:47:21;;;;;;;32.67;29.35;;;;;;;12.59;100.00;102018.50;6372933;23;20013;-69
2022/05/20 03:49:53;;;;;;;32.55;29.30;;;;;;;12.65;100.00;102020.66;6373500;23;20006;-69
2022/05/20 03:52:24;;;;;;;31.90;28.80;;;;;;;12.70;100.00;102018.53;6373396;23;20008;-69
2022/05/20 03:54:56;;;;;;;33.15;29.65;;;;;;;12.69;100.00;102011.63;6371262;23;20062;-69
2022/05/20 03:57:27;;;;;;;29.85;26.77;;;;;;;12.77;100.00;102018.94;6372165;23;20010;-69
2022/05/20 03:59:59;;;;;;;27.25;24.45;;;;;;;12.72;100.00;102008.72;6373239;23;20381;-69
2022/05/20 04:02:30;;;;;;;28.00;25.10;;;;;;;12.73;100.00;101992.03;6372529;23;20014;-69
2022/05/20 04:05:01;;;;;;;26.25;23.70;;;;;;;12.73;100.00;101996.41;6373052;23;20013;-69
2022/05/20 04:07:33;;;;;;;23.70;19.20;;;;;;;12.69;100.00;101998.47;6347870;23;20006;-69
2022/05/20 04:10:06;;;;;;;22.23;20.02;;;;;;;12.73;100.00;101992.03;6374725;23;20006;-69
2022/05/20 04:12:41;;;;;;;24.13;21.73;;;;;;;12.72;100.00;101995.59;6374677;23;20006;-69
2022/05/20 04:15:14;;;;;;;24.98;22.45;;;;;;;12.72;100.00;101994.75;6373625;23;20012;-69
2022/05/20 04:17:46;;;;;;;25.08;22.48;;;;;;;12.68;100.00;101988.88;6375383;23;20073;-69
2022/05/20 04:20:17;;;;;;;25.70;21.77;;;;;;;12.68;100.00;101986.25;6374919;23;20044;-69
2022/05/20 04:22:49;;;;;;;26.25;23.67;;;;;;;12.69;100.00;101977.44;6374833;23;20012;-69
2022/05/20 04:25:20;;;;;;;26.95;24.10;;;;;;;12.71;100.00;101978.13;6374334;23;20097;-69
2022/05/20 04:27:51;;;;;;;30.80;27.63;;;;;;;12.77;100.00;101988.19;6375054;23;20009;-69
2022/05/20 04:30:23;;;;;;;41.03;36.00;;;;;;;12.84;100.00;101988.56;6375578;23;20002;-69
2022/05/20 04:32:54;;;;;;;46.33;40.35;;;;;;;12.92;100.00;101988.84;6374214;23;20014;-69
2022/05/20 04:35:25;;;;;;;42.50;37.90;;;;;;;12.97;100.00;101978.78;6372691;23;20010;-69
2022/05/20 04:37:57;;;;;;;49.10;42.65;;;;;;;13.02;100.00;101983.69;6375114;23;20349;-69
2022/05/20 04:40:28;;;;;;;48.95;43.10;;;;;;;13.06;100.00;101983.31;6374967;23;20010;-69
2022/05/20 04:48:39;;;;;;;48.00;42.88;;;;;;;13.23;100.00;101995.22;6374670;23;20018;-69
2022/05/20 04:51:10;;;;;;;48.63;43.40;;;;;;;13.26;100.00;102005.53;6348757;23;19998;-69
2022/05/20 04:56:31;;;;;;;48.88;43.58;;;;;;;13.41;100.00;102015.78;6372902;23;20033;-69
2022/05/20 04:59:03;;;;;;;50.33;44.60;;;;;;;13.48;100.00;102006.47;6374967;23;20426;-69
2022/05/20 05:01:34;;;;;;;52.85;46.63;;;;;;;13.60;100.00;102014.25;6374994;23;20077;-69
2022/05/20 05:04:06;;;;;;;52.60;46.97;;;;;;;13.73;100.00;102005.38;6373472;23;20040;-69
2022/05/20 05:06:38;;;;;;;53.95;46.67;;;;;;;13.67;100.00;101976.88;6416196;23;20465;-72
2022/05/20 05:09:09;;;;;;;49.67;44.22;;;;;;;13.93;100.00;102004.59;6429306;23;20063;-69
2022/05/20 05:11:41;;;;;;;52.35;45.65;;;;;;;13.97;100.00;101990.22;6435788;23;20490;-70
2022/05/20 05:14:15;;;;;;;51.22;45.35;;;;;;;14.11;100.00;101997.00;6407912;23;20447;-70
2022/05/20 05:16:47;;;;;;;48.70;43.28;;;;;;;14.15;100.00;102000.22;6405626;23;20036;-69
2022/05/20 05:19:18;;;;;;;50.42;43.63;;;;;;;14.22;100.00;102015.41;6374442;23;20005;-71
2022/05/20 05:21:49;;;;;;;53.47;41.80;;;;;;;14.28;100.00;102014.94;6404212;23;20033;-69
2022/05/20 05:24:21;;;;;;;53.67;43.58;;;;;;;14.37;100.00;102010.69;6404211;23;20006;-69
2022/05/20 05:26:52;;;;;;;47.92;42.67;;;;;;;14.33;100.00;102017.19;6402792;23;20010;-72
2022/05/20 05:29:23;;;;;;;47.67;42.58;;;;;;;14.37;100.00;102005.41;6403151;23;20017;-73
2022/05/20 05:31:55;;;;;;;50.22;42.22;;;;;;;14.38;100.00;102006.25;6404586;23;20008;-70
2022/05/20 05:34:26;;;;;;;45.83;40.42;;;;;;;14.45;100.00;101994.22;6403589;23;20410;-71
2022/05/20 05:36:57;;;;;;;47.42;41.97;;;;;;;14.41;100.00;101987.53;6403907;23;20089;-70
2022/05/20 05:39:29;;;;;;;45.88;40.97;;;;;;;14.41;100.00;101990.19;6404599;23;20002;-72
2022/05/20 05:42:01;;;;;;;42.70;38.13;;;;;;;14.40;100.00;101980.59;6404084;23;20041;-73
2022/05/20 05:44:32;;;;;;;42.33;37.88;;;;;;;14.40;100.00;101977.97;6403300;23;20088;-69
2022/05/20 05:47:04;;;;;;;42.70;38.25;;;;;;;14.54;100.00;101977.66;6403145;23;20032;-72
2022/05/20 05:49:35;;;;;;;40.33;36.13;;;;;;;14.66;100.00;101979.31;6401165;23;20031;-72
2022/05/20 05:52:06;;;;;;;39.45;35.53;;;;;;;14.71;100.00;101966.56;6403860;23;20001;-69
2022/05/20 05:54:38;;;;;;;39.15;35.17;;;;;;;14.68;100.00;101973.88;6403520;23;20084;-71
2022/05/20 05:57:09;;;;;;;39.60;35.70;;;;;;;14.84;100.00;101961.06;6404115;23;20016;-68
2022/05/20 05:59:41;;;;;;;36.38;32.72;;;;;;;14.91;100.00;101969.28;6404064;23;20017;-68
2022/05/20 06:02:12;;;;;;;34.05;30.80;;;;;;;15.02;100.00;101977.13;6403325;23;20013;-69
2022/05/20 06:04:44;;;;;;;31.55;28.42;;;;;;;15.03;100.00;101973.53;6399444;23;20013;-70
2022/05/20 06:07:16;;;;;;;30.45;27.25;;;;;;;15.07;100.00;101965.19;6373518;23;20005;-72
2022/05/20 06:09:47;;;;;;;29.50;26.60;;;;;;;15.21;100.00;101974.56;6346355;23;20006;-68
2022/05/20 06:12:18;;;;;;;28.08;25.17;;;;;;;15.27;100.00;101966.13;6373233;23;20025;-71
2022/05/20 06:14:50;;;;;;;24.50;21.92;;;;;;;15.34;100.00;101963.78;6369910;23;20009;-68
2022/05/20 06:17:21;;;;;;;26.57;23.77;;;;;;;15.50;100.00;101960.66;6372442;23;20002;-71
2022/05/20 06:19:52;;;;;;;26.13;23.25;;;;;;;15.62;100.00;101954.28;6367742;23;20336;-72
2022/05/20 06:22:23;;;;;;;25.97;23.27;;;;;;;15.76;100.00;101971.59;6370068;23;20319;-68
2022/05/20 06:24:55;;;;;;;23.88;21.50;;;;;;;15.94;100.00;101963.81;6370261;23;20693;-69
2022/05/20 06:27:26;;;;;;;22.77;20.48;;;;;;;16.07;100.00;101961.75;6371571;23;20353;-69
2022/05/20 06:29:58;;;;;;;21.40;17.65;;;;;;;16.05;100.00;101953.09;6372067;23;20018;-69
2022/05/20 06:32:30;;;;;;;19.67;17.58;;;;;;;16.24;100.00;101960.19;6370596;23;20453;-72
2022/05/20 06:40:48;;;;;;;17.08;15.27;;;;;;;16.28;100.00;101938.63;6371019;23;20492;-71
2022/05/20 06:43:20;;;;;;;15.98;13.07;;;;;;;16.27;100.00;101929.03;6369317;23;20009;-69
2022/05/20 06:45:56;;;;;;;14.18;12.60;;;;;;;16.46;100.00;101935.25;6369993;23;20445;-69
2022/05/20 06:48:38;;;;;;;14.40;13.00;;;;;;;16.75;100.00;101936.06;6345213;23;20002;-69
2022/05/20 06:51:11;;;;;;;16.00;13.95;;;;;;;16.73;100.00;101938.00;6370182;23;20001;-70
2022/05/20 06:53:43;;;;;;;13.27;11.75;;;;;;;16.74;100.00;101938.84;6370521;23;20901;-70
2022/05/20 06:56:15;;;;;;;14.30;12.88;;;;;;;16.75;100.00;101933.44;6370899;23;20082;-70
2022/05/20 06:58:47;;;;;;;16.40;13.45;;;;;;;16.80;100.00;101929.50;6346187;23;20416;-70
2022/05/20 07:01:18;;;;;;;14.05;12.13;;;;;;;17.04;100.00;101935.13;6371336;23;20002;-71
2022/05/20 07:03:50;;;;;;;14.70;12.88;;;;;;;17.22;100.00;101930.72;6370799;23;20468;-71
2022/05/20 07:06:22;;;;;;;13.10;10.82;;;;;;;17.44;100.00;101913.59;6371040;23;20380;-71
2022/05/20 07:08:53;;;;;;;14.90;12.43;;;;;;;17.62;100.00;101915.44;6370852;23;20002;-71
2022/05/20 07:11:25;;;;;;;16.13;12.80;;;;;;;17.58;100.00;101914.91;6371923;23;20068;-71
2022/05/20 07:13:58;;;;;;;14.77;12.30;;;;;;;17.67;100.00;101914.00;6371231;23;20490;-73
2022/05/20 07:16:30;;;;;;;13.85;12.27;;;;;;;17.85;100.00;101907.91;6371924;23;20006;-71
2022/05/20 07:19:01;;;;;;;13.13;11.37;;;;;;;17.99;100.00;101907.34;6371542;23;20016;-70
2022/05/20 07:21:33;;;;;;;12.35;11.25;;;;;;;18.04;100.00;101896.31;6371270;23;20002;-70
2022/05/20 07:24:04;;;;;;;14.30;10.90;;;;;;;18.12;100.00;101899.84;6371498;23;20436;-71
2022/05/20 07:26:36;;;;;;;12.50;10.15;;;;;;;18.24;100.00;101890.66;6371704;23;20326;-71
2022/05/20 07:29:08;;;;;;;12.00;10.10;;;;;;;18.49;100.00;101890.84;6373115;23;20341;-70
2022/05/20 07:31:40;;;;;;;11.53;8.97;;;;;;;18.64;100.00;101880.47;6372870;23;20346;-71
2022/05/20 07:34:12;;;;;;;12.25;9.68;;;;;;;18.81;100.00;101890.19;6370486;23;19998;-71
2022/05/20 07:36:44;;;;;;;11.68;8.00;;;;;;;18.92;100.00;101884.63;6372287;23;20033;-71
2022/05/20 07:39:15;;;;;;;9.57;6.47;;;;;;;19.00;100.00;101886.47;6373927;23;20040;-71
2022/05/20 07:41:47;;;;;;;9.30;7.13;;;;;;;19.16;100.00;101886.53;6374390;23;20006;-71
2022/05/20 07:44:19;;;;;;;8.27;5.88;;;;;;;19.19;100.00;101883.53;6346822;23;20013;-71
2022/05/20 07:46:50;;;;;;;7.97;6.47;;;;;;;19.29;100.00;101866.66;6373977;23;20005;-71
2022/05/20 07:49:21;;;;;;;9.32;6.50;;;;;;;19.40;100.00;101851.22;6374985;23;20010;-70
2022/05/20 07:51:57;;;;;;;9.30;6.10;;;;;;;19.56;100.00;101850.41;6373515;23;20002;-69
2022/05/20 07:54:36;;;;;;;8.73;5.32;;;;;;;19.67;100.00;101854.63;6373868;23;20088;-69
2022/05/20 07:57:13;;;;;;;8.65;4.97;;;;;;;19.95;100.00;101843.63;6374569;23;20432;-68
2022/05/20 07:59:48;;;;;;;8.05;5.97;;;;;;;19.82;100.00;101849.47;6373746;23;20005;-71
2022/05/20 08:02:28;;;;;;;7.15;5.53;;;;;;;20.04;100.00;101835.50;6373919;23;20096;-70
2022/05/20 08:05:00;;;;;;;8.77;5.95;;;;;;;20.14;100.00;101833.47;6372324;23;20018;-69
2022/05/20 08:07:35;;;;;;;8.70;5.40;;;;;;;20.24;100.00;101837.78;6371677;23;20332;-69
2022/05/20 08:10:20;;;;;;;8.50;5.43;;;;;;;20.36;100.00;101833.75;6373647;23;19998;-69
2022/05/20 08:12:51;;;;;;;10.70;5.20;;;;;;;20.43;100.00;101837.41;6374486;23;20457;-69
2022/05/20 08:15:24;;;;;;;5.37;4.13;;;;;;;20.60;100.00;101844.34;6372251;23;20013;-69
2022/05/20 08:17:55;;;;;;;9.35;5.95;;;;;;;20.57;100.00;101838.53;6374317;23;20002;-69
2022/05/20 08:20:28;;;;;;;8.97;5.17;;;;;;;20.64;100.00;101834.19;6374433;23;20368;-69
2022/05/20 08:23:00;;;;;;;8.05;4.97;;;;;;;20.73;100.00;101824.34;6373834;23;20006;-69
2022/05/20 08:25:32;;;;;;;8.77;5.80;;;;;;;20.67;100.00;101817.06;6373948;23;20022;-69
2022/05/20 08:28:04;;;;;;;9.33;4.67;;;;;;;20.79;100.00;101821.00;6373774;23;20430;-70
2022/05/20 08:30:36;;;;;;;7.82;5.18;;;;;;;20.78;100.00;101825.50;6374578;23;20009;-70
2022/05/20 08:33:07;;;;;;;8.13;5.63;;;;;;;20.82;100.00;101818.81;6374276;23;20005;-70
2022/05/20 08:35:39;;;;;;;10.30;6.03;;;;;;;20.79;100.00;101816.50;6373776;23;20005;-70
2022/05/20 08:38:10;;;;;;;6.20;5.20;;;;;;;20.74;100.00;101807.38;6374435;23;20014;-70
2022/05/20 08:40:44;;;;;;;9.43;5.20;;;;;;;20.62;100.00;101797.09;6372993;23;20006;-70
2022/05/20 08:43:22;;;;;;;11.48;5.28;;;;;;;20.70;100.00;101788.25;6374353;23;20382;-69
2022/05/20 08:45:53;;;;;;;8.18;6.10;;;;;;;20.67;100.00;101777.94;6373608;23;20398;-69
2022/05/20 08:48:25;;;;;;;8.03;6.10;;;;;;;20.82;100.00;101776.19;6374384;23;20064;-69
2022/05/20 08:50:57;;;;;;;8.10;6.13;;;;;;;21.11;100.00;101762.22;6374044;23;19998;-69
2022/05/20 08:53:38;;;;;;;7.13;6.28;;;;;;;21.33;100.00;101760.59;6372805;23;20020;-69
2022/05/20 08:56:13;;;;;;;9.23;6.43;;;;;;;21.33;100.00;101739.25;6373553;23;20077;-70
2022/05/20 08:59:01;;;;;;;10.93;6.85;;;;;;;21.76;100.00;101746.72;6373750;23;20441;-69
2022/05/20 09:01:42;;;;;;;10.52;6.93;;;;;;;21.74;100.00;101772.72;6374236;23;20002;-70
2022/05/20 09:04:17;;;;;;;9.52;7.35;;;;;;;21.61;100.00;101771.50;6373102;23;20016;-69
2022/05/20 09:07:08;;;;;;;11.13;8.35;;;;;;;21.85;100.00;101758.94;6374241;23;20024;-69
2022/05/20 09:09:56;;;;;;;10.75;8.45;;;;;;;21.68;100.00;101747.63;6374223;23;20434;-69
2022/05/20 09:12:36;;;;;;;9.23;8.07;;;;;;;21.87;100.00;101751.59;6374457;23;19998;-69
2022/05/20 09:18:12;;;;;;;12.07;8.85;;;;;;;22.02;100.00;101733.75;6374084;23;20434;-70
2022/05/20 09:20:53;;;;;;;11.07;9.35;;;;;;;22.15;100.00;101726.97;6374562;23;20029;-69
2022/05/20 09:23:25;;;;;;;10.68;8.55;;;;;;;22.06;100.00;101719.03;6373314;23;20006;-70
2022/05/20 09:26:04;;;;;;;12.13;9.23;;;;;;;22.10;100.00;101712.31;6347930;23;20430;-69
2022/05/20 09:28:59;;;;;;;11.20;9.15;;;;;;;22.28;100.00;101690.63;6373990;23;20027;-70
2022/05/20 09:31:42;;;;;;;11.18;9.48;;;;;;;22.30;100.00;101683.22;6299835;23;20453;-70
2022/05/20 09:34:25;;;;;;;13.32;10.20;;;;;;;22.40;100.00;101674.94;6373269;23;20010;-69
2022/05/20 09:36:58;;;;;;;;;;;;;;;22.81;100.00;101687.72;6348585;23;20030;-70
2022/05/20 09:39:36;;;;;;;13.88;9.82;;;;;;;22.28;100.00;101685.28;6373359;23;19952;-69
2022/05/20 09:42:15;;;;;;;12.45;11.05;;;;;;;22.50;100.00;101674.63;6374307;23;20018;-70
2022/05/20 09:44:52;;;;;;;16.90;11.50;;;;;;;22.59;100.00;101666.31;6373119;23;20338;-70
2022/05/20 09:47:47;;;;;;;15.50;11.55;;;;;;;22.79;100.00;101666.50;6373229;23;20006;-69
2022/05/20 09:50:31;;;;;;;14.02;12.10;;;;;;;22.97;100.00;101646.56;6373572;23;20002;-70
2022/05/20 09:53:25;;;;;;;14.80;11.90;;;;;;;23.31;100.00;101632.44;6373779;23;20066;-69
2022/05/20 09:56:25;;;;;;;14.50;11.82;;;;;;;23.43;100.00;101630.88;6373237;23;20028;-70
2022/05/20 09:59:13;;;;;;;13.43;10.18;;;;;;;23.49;100.00;101639.97;6373381;23;20084;-70
2022/05/20 10:01:56;;;;;;;13.75;11.55;;;;;;;23.57;100.00;101615.75;6373489;23;20017;-70
2022/05/20 10:04:53;;;;;;;18.05;11.98;;;;;;;23.65;100.00;101604.88;6372543;23;20081;-70
2022/05/20 10:07:47;;;;;;;16.35;13.18;;;;;;;23.40;100.00;101591.16;6373463;23;20060;-70
2022/05/20 10:10:29;;;;;;;14.18;12.32;;;;;;;23.08;100.00;101589.91;6373594;23;20492;-70
2022/05/20 10:13:04;;;;;;;19.38;12.68;;;;;;;22.98;100.00;101584.06;6374215;23;20499;-70
2022/05/20 10:15:44;;;;;;;13.65;11.50;;;;;;;23.10;100.00;101579.84;6370277;23;20002;-69
2022/05/20 10:18:31;;;;;;;13.50;11.43;;;;;;;23.35;100.00;101568.69;6373415;23;20010;-70
2022/05/20 10:21:21;;;;;;;12.25;10.63;;;;;;;23.46;100.00;101563.63;6373924;23;20081;-70
2022/05/20 10:24:07;;;;;;;14.05;12.23;;;;;;;23.50;100.00;101551.50;6373371;23;20009;-70
2022/05/20 10:26:59;;;;;;;18.17;11.13;;;;;;;23.79;100.00;101539.72;6373735;23;20053;-69
2022/05/20 10:33:04;;;;;;;13.70;10.88;;;;;;;23.43;100.00;101537.28;6367461;23;20358;-70
2022/05/20 10:36:00;;;;;;;14.13;11.18;;;;;;;23.58;100.00;101525.63;6372363;23;20006;-69
2022/05/20 10:38:50;;;;;;;13.18;10.38;;;;;;;23.55;100.00;101513.47;6374140;23;20017;-70
2022/05/20 10:41:51;;;;;;;12.70;10.85;;;;;;;23.13;100.00;101511.81;6372588;23;20010;-69
2022/05/20 10:51:23;;;;;;;12.50;10.02;;;;;;;23.24;100.00;101457.78;6372459;23;20136;-70
2022/05/20 10:53:54;;;;;;;14.82;10.45;;;;;;;23.02;100.00;101452.53;6372525;23;20002;-70
2022/05/20 10:56:43;;;;;;;14.23;10.13;;;;;;;23.30;100.00;101430.28;6372811;23;20322;-69
2022/05/20 10:59:59;;;;;;;13.82;9.95;;;;;;;23.37;100.00;101422.25;6372448;23;20006;-70
2022/05/20 11:03:07;;;;;;;16.40;10.60;;;;;;;23.10;100.00;101402.63;6373346;23;20536;-69
2022/05/20 11:06:06;;;;;;;14.70;10.85;;;;;;;22.92;100.00;101393.31;6385201;23;20027;-69
2022/05/20 11:09:15;;;;;;;16.25;12.13;;;;;;;22.84;100.00;101374.72;6428634;23;20016;-70
2022/05/20 11:12:01;;;;;;;14.48;11.77;;;;;;;22.97;100.00;101374.00;6408690;23;20001;-71
2022/05/20 11:14:57;;;;;;;14.90;11.80;;;;;;;22.93;100.00;101362.88;6434392;23;20005;-70
2022/05/20 11:17:56;;;;;;;14.73;11.52;;;;;;;23.01;100.00;101359.22;6404157;23;20081;-70
2022/05/20 11:20:49;;;;;;;14.77;11.48;;;;;;;22.98;100.00;101363.09;6401057;23;20005;-70
2022/05/20 11:23:23;;;;;;;18.52;13.13;;;;;;;;;;6404103;23;20009;-71
2022/05/20 11:26:13;;;;;;;16.33;12.35;;;;;;;23.05;100.00;101347.09;6402134;23;20010;-70
2022/05/20 11:29:12;;;;;;;21.92;15.77;;;;;;;23.01;100.00;101341.31;6403448;23;20005;-70
2022/05/20 11:31:52;;;;;;;18.67;14.02;;;;;;;22.92;100.00;101347.88;6403894;23;20060;-69
2022/05/20 11:34:45;;;;;;;16.88;15.02;;;;;;;23.10;100.00;101346.50;6401772;23;20072;-70
2022/05/20 11:37:38;;;;;;;20.23;15.40;;;;;;;22.77;100.00;101344.50;6402394;23;20001;-69
2022/05/20 11:40:16;;;;;;;;;;;;;;;23.38;100.00;101333.00;6403477;23;20512;-70
2022/05/20 11:43:06;;;;;;;19.50;16.33;;;;;;;22.75;100.00;101331.31;6403918;23;19995;-71
2022/05/20 11:45:56;;;;;;;23.38;16.90;;;;;;;22.57;100.00;101329.16;6400994;23;20009;-69
2022/05/20 11:49:11;;;;;;;19.73;16.35;;;;;;;22.74;100.00;101316.31;6403421;23;20096;-70
2022/05/20 11:52:02;;;;;;;19.02;16.00;;;;;;;22.51;100.00;101300.59;6372180;23;20009;-70
2022/05/20 11:55:01;;;;;;;19.90;17.90;;;;;;;22.48;100.00;101270.78;6402164;23;20048;-69
2022/05/20 11:57:38;;;;;;;21.73;16.95;;;;;;;22.21;100.00;101272.50;6403685;23;20056;-70
2022/05/20 12:00:14;;;;;;;20.25;17.95;;;;;;;22.20;100.00;101292.19;6377485;23;20014;-69
2022/05/20 12:02:55;;;;;;;21.20;18.33;;;;;;;22.20;100.00;101293.03;6402965;23;20070;-69
2022/05/20 12:05:30;;;;;;;22.38;19.13;;;;;;;22.09;100.00;101337.06;6371784;23;20018;-70
2022/05/20 12:08:02;;;;;;;26.40;22.98;;;;;;;21.79;100.00;101314.25;6347171;23;20006;-69
2022/05/20 12:10:33;;;;;;;23.43;20.93;;;;;;;21.61;100.00;101278.19;6372574;23;20068;-69
2022/05/20 12:13:15;;;;;;;27.93;24.63;;;;;;;21.50;100.00;101270.72;6372750;23;20005;-69
2022/05/20 12:16:08;;;;;;;27.38;24.55;;;;;;;21.20;100.00;101285.16;6372955;23;20012;-69
2022/05/20 12:25:33;;;;;;;29.00;26.00;;;;;;;21.24;100.00;101275.75;6372091;23;20014;-68
2022/05/20 12:28:10;;;;;;;29.83;26.73;;;;;;;21.00;100.00;101247.66;6373334;23;20013;-69